createdAt,value
2022-11-29T00:01:03.293Z,0.43
2022-11-29T00:03:30.766Z,0.42
2022-11-29T00:06:07.098Z,0.40
2022-11-29T00:08:34.922Z,0.37
2022-11-29T00:11:34.858Z,0.37
2022-11-29T00:14:01.731Z,0.36
2022-11-29T00:16:28.660Z,0.37
2022-11-29T00:18:55.833Z,0.37
2022-11-29T00:21:22.766Z,0.37
2022-11-29T00:23:49.550Z,0.38
2022-11-29T00:26:16.356Z,0.37
2022-11-29T00:28:43.143Z,0.37
2022-11-29T00:31:31.580Z,0.36
2022-11-29T00:34:00.363Z,0.35
2022-11-29T00:36:27.928Z,0.34
2022-11-29T00:38:54.788Z,0.35
2022-11-29T00:41:21.619Z,0.34
2022-11-29T00:43:48.564Z,0.35
2022-11-29T00:46:15.780Z,0.36
2022-11-29T00:48:42.883Z,0.38
2022-11-29T00:51:10.027Z,0.38
2022-11-29T00:53:37.260Z,0.38
2022-11-29T00:56:05.681Z,0.39
2022-11-29T00:58:33.261Z,0.38
2022-11-29T01:01:00.092Z,0.39
2022-11-29T01:03:26.961Z,0.38
2022-11-29T01:06:10.656Z,0.40
2022-11-29T01:08:38.247Z,0.40
2022-11-29T01:11:10.870Z,0.39
2022-11-29T01:13:38.103Z,0.39
2022-11-29T01:16:05.978Z,0.39
2022-11-29T01:18:33.586Z,0.37
2022-11-29T01:21:08.030Z,0.36
2022-11-29T01:23:35.922Z,0.35
2022-11-29T01:26:09.424Z,0.34
2022-11-29T01:28:37.777Z,0.33
2022-11-29T01:31:09.610Z,0.33
2022-11-29T01:33:37.537Z,0.32
2022-11-29T01:36:05.678Z,0.30
2022-11-29T01:38:33.493Z,0.29
2022-11-29T01:41:13.345Z,0.27
2022-11-29T01:44:11.874Z,0.27
2022-11-29T01:46:44.450Z,0.28
2022-11-29T01:49:16.966Z,0.27
2022-11-29T01:52:30.009Z,0.28
2022-11-29T01:55:01.382Z,0.26
2022-11-29T01:57:29.123Z,0.26
2022-11-29T02:00:01.811Z,0.24
2022-11-29T02:02:38.063Z,0.22
2022-11-29T02:05:06.096Z,0.19
2022-11-29T02:07:33.419Z,0.16
2022-11-29T02:10:01.347Z,0.14
2022-11-29T02:12:33.909Z,0.13
2022-11-29T02:15:09.673Z,0.12
2022-11-29T02:18:02.758Z,0.10
2022-11-29T02:21:14.337Z,0.08
2022-11-29T02:23:49.934Z,0.04
2022-11-29T02:26:54.364Z,0.02
2022-11-29T02:29:30.794Z,-0.00
2022-11-29T02:32:19.124Z,-0.05
2022-11-29T02:34:46.123Z,-0.07
2022-11-29T02:37:46.824Z,-0.09
2022-11-29T02:40:27.603Z,-0.11
2022-11-29T02:43:32.165Z,-0.13
2022-11-29T02:46:11.141Z,-0.15
2022-11-29T02:48:52.977Z,-0.18
2022-11-29T02:51:41.156Z,-0.20
2022-11-29T02:54:25.996Z,-0.20
2022-11-29T02:57:03.696Z,-0.23
2022-11-29T02:59:55.196Z,-0.23
2022-11-29T03:02:30.835Z,-0.24
2022-11-29T03:05:22.275Z,-0.25
2022-11-29T03:08:00.390Z,-0.26
2022-11-29T03:10:41.515Z,-0.27
2022-11-29T03:13:36.465Z,-0.27
2022-11-29T03:16:16.418Z,-0.29
2022-11-29T03:18:59.831Z,-0.31
2022-11-29T03:21:45.733Z,-0.31
2022-11-29T03:24:17.357Z,-0.31
2022-11-29T03:26:56.726Z,-0.31
2022-11-29T03:29:32.758Z,-0.31
2022-11-29T03:32:14.719Z,-0.32
2022-11-29T03:35:26.531Z,-0.32
2022-11-29T03:38:27.800Z,-0.34
2022-11-29T03:40:59.640Z,-0.34
2022-11-29T03:43:38.368Z,-0.35
2022-11-29T03:46:11.724Z,-0.36
2022-11-29T03:49:02.061Z,-0.36
2022-11-29T03:51:48.886Z,-0.38
2022-11-29T03:54:47.571Z,-0.39
2022-11-29T03:57:21.595Z,-0.38
2022-11-29T03:59:51.218Z,-0.38
2022-11-29T04:02:48.030Z,-0.39
2022-11-29T04:05:19.930Z,-0.40
2022-11-29T04:08:17.946Z,-0.40
2022-11-29T04:11:34.938Z,-0.40
2022-11-29T04:14:04.508Z,-0.40
2022-11-29T04:16:52.579Z,-0.40
2022-11-29T04:19:43.922Z,-0.40
2022-11-29T04:22:13.611Z,-0.40
2022-11-29T04:24:58.639Z,-0.38
2022-11-29T04:28:02.958Z,-0.38
2022-11-29T04:30:47.394Z,-0.39
2022-11-29T04:33:35.626Z,-0.41
2022-11-29T04:36:47.687Z,-0.42
2022-11-29T04:39:29.740Z,-0.44
2022-11-29T04:42:02.572Z,-0.44
2022-11-29T04:44:54.217Z,-0.46
2022-11-29T04:47:27.192Z,-0.47
2022-11-29T04:50:12.742Z,-0.48
2022-11-29T04:53:15.107Z,-0.48
2022-11-29T04:55:55.965Z,-0.49
2022-11-29T04:58:43.275Z,-0.49
2022-11-29T05:01:31.941Z,-0.49
2022-11-29T05:04:09.107Z,-0.50
2022-11-29T05:07:05.296Z,-0.50
2022-11-29T05:09:59.980Z,-0.50
2022-11-29T05:12:38.266Z,-0.49
2022-11-29T05:15:46.693Z,-0.49
2022-11-29T05:18:36.355Z,-0.49
2022-11-29T05:21:07.269Z,-0.50
2022-11-29T05:24:11.483Z,-0.51
2022-11-29T05:26:46.408Z,-0.51
2022-11-29T05:29:28.726Z,-0.52
2022-11-29T05:32:04.529Z,-0.52
2022-11-29T05:35:05.773Z,-0.52
2022-11-29T05:38:05.106Z,-0.51
2022-11-29T05:41:10.151Z,-0.50
2022-11-29T05:44:04.458Z,-0.49
2022-11-29T05:47:02.371Z,-0.49
2022-11-29T05:49:29.448Z,-0.50
2022-11-29T05:52:21.644Z,-0.50
2022-11-29T05:55:13.269Z,-0.49
2022-11-29T05:58:12.346Z,-0.49
2022-11-29T06:00:48.466Z,-0.48
2022-11-29T06:03:38.999Z,-0.48
2022-11-29T06:06:39.160Z,-0.47
2022-11-29T06:09:28.088Z,-0.47
2022-11-29T06:12:01.971Z,-0.46
2022-11-29T06:14:34.783Z,-0.44
2022-11-29T06:17:31.968Z,-0.42
2022-11-29T06:20:51.027Z,-0.39
2022-11-29T06:23:28.601Z,-0.36
2022-11-29T06:26:14.247Z,-0.35
2022-11-29T06:28:53.211Z,-0.34
2022-11-29T06:31:25.946Z,-0.32
2022-11-29T06:34:06.936Z,-0.30
2022-11-29T06:36:42.374Z,-0.27
2022-11-29T06:39:10.221Z,-0.25
2022-11-29T06:41:37.473Z,-0.22
2022-11-29T06:44:05.220Z,-0.20
2022-11-29T06:46:46.249Z,-0.17
2022-11-29T06:49:34.677Z,-0.14
2022-11-29T06:52:07.464Z,-0.13
2022-11-29T06:55:00.848Z,-0.11
2022-11-29T06:57:39.750Z,-0.10
2022-11-29T07:00:21.630Z,-0.08
2022-11-29T07:03:11.206Z,-0.06
2022-11-29T07:05:38.821Z,-0.05
2022-11-29T07:08:13.422Z,-0.00
2022-11-29T07:10:42.051Z,0.05
2022-11-29T07:13:12.863Z,0.07
2022-11-29T07:15:52.552Z,0.08
2022-11-29T07:18:35.982Z,0.09
2022-11-29T07:21:28.969Z,0.12
2022-11-29T07:24:34.850Z,0.13
2022-11-29T07:27:06.843Z,0.15
2022-11-29T07:29:59.670Z,0.17
2022-11-29T07:33:07.962Z,0.20
2022-11-29T07:35:37.509Z,0.22
2022-11-29T07:38:13.090Z,0.23
2022-11-29T07:40:52.112Z,0.25
2022-11-29T07:43:51.188Z,0.27
2022-11-29T07:46:18.351Z,0.29
2022-11-29T07:48:45.404Z,0.31
2022-11-29T07:51:12.168Z,0.34
2022-11-29T07:53:42.826Z,0.37
2022-11-29T07:56:11.808Z,0.42
2022-11-29T07:58:39.084Z,0.43
2022-11-29T08:01:06.161Z,0.42
2022-11-29T08:03:34.935Z,0.42
2022-11-29T08:06:02.665Z,0.44
2022-11-29T08:08:29.565Z,0.46
2022-11-29T08:10:56.387Z,0.45
2022-11-29T08:13:23.179Z,0.47
2022-11-29T08:15:49.961Z,0.47
2022-11-29T08:18:17.193Z,0.49
2022-11-29T08:20:45.775Z,0.50
2022-11-29T08:23:13.489Z,0.50
2022-11-29T08:25:40.415Z,0.50
2022-11-29T08:28:07.147Z,0.51
2022-11-29T08:30:34.043Z,0.52
2022-11-29T08:33:01.097Z,0.53
2022-11-29T08:35:28.068Z,0.53
2022-11-29T08:37:54.918Z,0.54
2022-11-29T08:40:22.425Z,0.53
2022-11-29T08:42:49.639Z,0.54
2022-11-29T08:45:16.543Z,0.55
2022-11-29T08:47:43.327Z,0.56
2022-11-29T08:50:14.625Z,0.59
2022-11-29T08:53:03.287Z,0.62
2022-11-29T08:55:42.250Z,0.65
2022-11-29T08:58:11.934Z,0.68
2022-11-29T09:00:40.216Z,0.69
2022-11-29T09:03:26.402Z,0.70
2022-11-29T09:05:53.772Z,0.72
2022-11-29T09:08:20.771Z,0.76
2022-11-29T09:10:47.985Z,0.78
2022-11-29T09:13:14.786Z,0.80
2022-11-29T09:15:42.979Z,0.84
2022-11-29T09:18:10.137Z,0.88
2022-11-29T09:20:36.980Z,0.93
2022-11-29T09:23:04.312Z,0.99
2022-11-29T09:25:31.093Z,1.04
2022-11-29T09:28:01.404Z,1.10
2022-11-29T09:30:31.382Z,1.15
2022-11-29T09:33:04.452Z,1.24
2022-11-29T09:35:32.427Z,1.31
2022-11-29T09:37:59.690Z,1.34
2022-11-29T09:40:33.430Z,1.38
2022-11-29T09:43:11.292Z,1.45
2022-11-29T09:45:42.601Z,1.51
2022-11-29T09:48:25.446Z,1.58
2022-11-29T09:51:33.967Z,1.65
2022-11-29T09:54:19.629Z,1.76
2022-11-29T09:56:50.131Z,1.83
2022-11-29T09:59:24.261Z,1.90
2022-11-29T10:02:04.067Z,1.96
2022-11-29T10:04:39.807Z,2.00
2022-11-29T10:07:17.379Z,2.00
2022-11-29T10:09:53.769Z,1.98
2022-11-29T10:12:35.679Z,1.96
2022-11-29T10:15:23.338Z,1.96
2022-11-29T10:18:01.450Z,2.04
2022-11-29T10:20:41.403Z,2.11
2022-11-29T10:23:25.879Z,2.14
2022-11-29T10:25:55.003Z,2.15
2022-11-29T10:28:25.957Z,2.14
2022-11-29T10:30:55.222Z,2.17
2022-11-29T10:33:28.105Z,2.22
2022-11-29T10:36:02.715Z,2.24
2022-11-29T10:38:31.523Z,2.25
2022-11-29T10:41:07.473Z,2.24
2022-11-29T10:43:36.805Z,2.22
2022-11-29T10:46:05.985Z,2.17
2022-11-29T10:48:33.845Z,2.13
2022-11-29T10:51:01.566Z,2.13
2022-11-29T10:53:36.654Z,2.16
2022-11-29T10:56:29.579Z,2.17
2022-11-29T10:59:04.599Z,2.18
2022-11-29T11:01:38.142Z,2.19
2022-11-29T11:04:09.457Z,2.22
2022-11-29T11:06:47.510Z,2.21
2022-11-29T11:09:48.051Z,2.21
2022-11-29T11:12:14.826Z,2.17
2022-11-29T11:14:43.694Z,2.14
2022-11-29T11:17:32.417Z,2.15
2022-11-29T11:20:04.165Z,2.14
2022-11-29T11:22:33.355Z,2.13
2022-11-29T11:25:25.033Z,2.13
2022-11-29T11:27:53.208Z,2.12
2022-11-29T11:30:26.531Z,2.16
2022-11-29T11:33:25.033Z,2.24
2022-11-29T11:36:25.170Z,2.29
2022-11-29T11:39:12.708Z,2.38
2022-11-29T11:42:02.319Z,2.43
2022-11-29T11:44:58.077Z,2.45
2022-11-29T11:47:31.411Z,2.46
2022-11-29T11:50:01.727Z,2.45
2022-11-29T11:52:39.858Z,2.39
2022-11-29T11:55:20.664Z,2.35
2022-11-29T11:58:18.225Z,2.29
2022-11-29T12:01:24.477Z,2.27
2022-11-29T12:04:01.411Z,2.24
2022-11-29T12:06:28.293Z,2.22
2022-11-29T12:09:32.089Z,2.21
2022-11-29T12:12:20.166Z,2.16
2022-11-29T12:15:02.188Z,2.16
2022-11-29T12:17:38.467Z,2.18
2022-11-29T12:20:10.871Z,2.20
2022-11-29T12:22:48.718Z,2.24
2022-11-29T12:25:22.066Z,2.26
2022-11-29T12:27:50.259Z,2.26
2022-11-29T12:30:18.501Z,2.29
2022-11-29T12:33:11.910Z,2.31
2022-11-29T12:36:04.406Z,2.32
2022-11-29T12:38:46.128Z,2.36
2022-11-29T12:41:40.443Z,2.38
2022-11-29T12:44:37.851Z,2.40
2022-11-29T12:47:35.582Z,2.41
2022-11-29T12:50:33.663Z,2.38
2022-11-29T12:53:21.226Z,2.35
2022-11-29T12:55:53.577Z,2.33
2022-11-29T12:58:44.299Z,2.32
2022-11-29T13:01:28.407Z,2.31
2022-11-29T13:04:19.965Z,2.32
2022-11-29T13:06:49.668Z,2.32
2022-11-29T13:09:35.039Z,2.28
2022-11-29T13:12:11.014Z,2.31
2022-11-29T13:14:44.884Z,2.29
2022-11-29T13:17:20.663Z,2.30
2022-11-29T13:19:58.061Z,2.30
2022-11-29T13:22:46.067Z,2.31
2022-11-29T13:25:25.550Z,2.33
2022-11-29T13:28:06.376Z,2.34
2022-11-29T13:30:35.059Z,2.36
2022-11-29T13:33:11.652Z,2.37
2022-11-29T13:35:43.385Z,2.35
2022-11-29T13:38:24.907Z,2.33
2022-11-29T13:41:01.958Z,2.33
2022-11-29T13:43:42.227Z,2.34
2022-11-29T13:46:22.296Z,2.33
2022-11-29T13:48:52.181Z,2.32
2022-11-29T13:51:24.077Z,2.31
2022-11-29T13:53:51.527Z,2.30
2022-11-29T13:56:33.121Z,2.29
2022-11-29T13:59:05.261Z,2.28
2022-11-29T14:01:46.878Z,2.26
2022-11-29T14:04:38.775Z,2.24
2022-11-29T14:07:10.744Z,2.24
2022-11-29T14:09:56.194Z,2.24
2022-11-29T14:12:41.199Z,2.22
2022-11-29T14:15:20.485Z,2.21
2022-11-29T14:17:47.324Z,2.22
2022-11-29T14:20:24.347Z,2.20
2022-11-29T14:23:03.722Z,2.19
2022-11-29T14:26:00.264Z,2.18
2022-11-29T14:28:31.688Z,2.19
2022-11-29T14:31:03.699Z,2.18
2022-11-29T14:33:51.707Z,2.18
2022-11-29T14:36:25.976Z,2.18
2022-11-29T14:39:29.687Z,2.18
2022-11-29T14:42:18.033Z,2.18
2022-11-29T14:44:50.774Z,2.16
2022-11-29T14:47:29.237Z,2.17
2022-11-29T14:49:59.139Z,2.18
2022-11-29T14:52:29.215Z,2.20
2022-11-29T14:55:47.743Z,2.20
2022-11-29T14:58:18.129Z,2.20
2022-11-29T15:00:47.507Z,2.21
2022-11-29T15:03:46.439Z,2.20
2022-11-29T15:06:25.130Z,2.19
2022-11-29T15:09:15.143Z,2.21
2022-11-29T15:11:41.850Z,2.20
2022-11-29T15:14:17.470Z,2.21
2022-11-29T15:16:55.145Z,2.22
2022-11-29T15:19:52.370Z,2.21
2022-11-29T15:22:29.181Z,2.21
2022-11-29T15:25:10.320Z,2.22
2022-11-29T15:27:40.143Z,2.22
2022-11-29T15:30:27.610Z,2.22
2022-11-29T15:32:55.487Z,2.23
2022-11-29T15:35:22.702Z,2.24
2022-11-29T15:37:51.156Z,2.24
2022-11-29T15:40:24.187Z,2.23
2022-11-29T15:43:19.934Z,2.25
2022-11-29T15:45:51.943Z,2.25
2022-11-29T15:48:27.077Z,2.24
2022-11-29T15:51:14.539Z,2.25
2022-11-29T15:54:12.188Z,2.26
2022-11-29T15:56:55.822Z,2.25
2022-11-29T15:59:38.792Z,2.26
2022-11-29T16:02:22.152Z,2.27
2022-11-29T16:04:53.462Z,2.27
2022-11-29T16:07:23.766Z,2.30
2022-11-29T16:09:57.391Z,2.30
2022-11-29T16:12:24.707Z,2.31
2022-11-29T16:14:55.919Z,2.33
2022-11-29T16:17:34.378Z,2.34
2022-11-29T16:20:13.090Z,2.37
2022-11-29T16:22:40.044Z,2.39
2022-11-29T16:25:15.551Z,2.40
2022-11-29T16:27:42.972Z,2.41
2022-11-29T16:30:41.496Z,2.41
2022-11-29T16:33:20.812Z,2.41
2022-11-29T16:35:48.374Z,2.41
2022-11-29T16:38:21.596Z,2.42
2022-11-29T16:41:19.664Z,2.43
2022-11-29T16:43:53.330Z,2.44
2022-11-29T16:46:20.231Z,2.45
2022-11-29T16:48:54.260Z,2.45
2022-11-29T16:51:37.212Z,2.44
2022-11-29T16:54:27.336Z,2.43
2022-11-29T16:56:56.552Z,2.44
2022-11-29T16:59:28.274Z,2.44
2022-11-29T17:01:56.398Z,2.44
2022-11-29T17:04:24.670Z,2.44
2022-11-29T17:06:54.136Z,2.43
2022-11-29T17:09:27.263Z,2.43
2022-11-29T17:11:55.047Z,2.43
2022-11-29T17:14:21.941Z,2.43
2022-11-29T17:16:49.072Z,2.43
2022-11-29T17:19:16.088Z,2.42
2022-11-29T17:21:43.183Z,2.44
2022-11-29T17:24:13.749Z,2.45
2022-11-29T17:26:42.641Z,2.46
2022-11-29T17:29:11.155Z,2.46
2022-11-29T17:31:38.244Z,2.46
2022-11-29T17:34:05.645Z,2.46
2022-11-29T17:36:32.754Z,2.46
2022-11-29T17:39:00.445Z,2.46
2022-11-29T17:41:29.858Z,2.45
2022-11-29T17:43:57.452Z,2.45
2022-11-29T17:46:29.857Z,2.44
2022-11-29T17:48:59.303Z,2.44
2022-11-29T17:51:51.059Z,2.43
2022-11-29T17:54:13.338Z,2.43
2022-11-29T17:56:40.021Z,2.42
2022-11-29T17:59:06.815Z,2.41
2022-11-29T18:01:35.192Z,2.40
2022-11-29T18:04:04.112Z,2.41
2022-11-29T18:06:35.646Z,2.41
2022-11-29T18:09:04.715Z,2.42
2022-11-29T18:11:41.598Z,2.41
2022-11-29T18:14:15.920Z,2.42
2022-11-29T18:16:44.808Z,2.42
2022-11-29T18:19:15.096Z,2.40
2022-11-29T18:21:42.088Z,2.40
2022-11-29T18:24:09.629Z,2.39
2022-11-29T18:26:37.625Z,2.39
2022-11-29T18:29:05.719Z,2.38
2022-11-29T18:31:36.287Z,2.39
2022-11-29T18:34:11.284Z,2.39
2022-11-29T18:36:43.348Z,2.39
2022-11-29T18:39:15.707Z,2.39
2022-11-29T18:41:44.950Z,2.37
2022-11-29T18:44:14.210Z,2.37
2022-11-29T18:46:42.983Z,2.36
2022-11-29T18:49:12.622Z,2.35
2022-11-29T18:51:41.654Z,2.33
2022-11-29T18:54:08.528Z,2.33
2022-11-29T18:56:36.306Z,2.32
2022-11-29T18:59:09.606Z,2.31
2022-11-29T19:01:40.462Z,2.31
2022-11-29T19:04:10.412Z,2.31
2022-11-29T19:06:39.975Z,2.31
2022-11-29T19:09:11.785Z,2.30
2022-11-29T19:11:39.254Z,2.29
2022-11-29T19:14:10.760Z,2.30
2022-11-29T19:16:39.675Z,2.30
2022-11-29T19:19:06.587Z,2.30
2022-11-29T19:21:38.651Z,2.30
2022-11-29T19:24:12.817Z,2.30
2022-11-29T19:26:40.070Z,2.30
2022-11-29T19:29:06.962Z,2.29
2022-11-29T19:31:33.758Z,2.29
2022-11-29T19:34:00.591Z,2.29
2022-11-29T19:36:29.793Z,2.28
2022-11-29T19:38:58.971Z,2.26
2022-11-29T19:41:33.545Z,2.25
2022-11-29T19:44:06.250Z,2.25
2022-11-29T19:46:36.104Z,2.23
2022-11-29T19:49:05.175Z,2.22
2022-11-29T19:51:32.813Z,2.21
2022-11-29T19:54:02.917Z,2.20
2022-11-29T19:56:31.267Z,2.19
2022-11-29T19:59:01.201Z,2.18
2022-11-29T20:01:36.106Z,2.16
2022-11-29T20:04:07.716Z,2.16
2022-11-29T20:06:35.144Z,2.16
2022-11-29T20:09:02.372Z,2.15
2022-11-29T20:11:29.348Z,2.15
2022-11-29T20:13:58.530Z,2.15
2022-11-29T20:16:26.583Z,2.14
2022-11-29T20:18:54.179Z,2.13
2022-11-29T20:21:25.402Z,2.13
2022-11-29T20:23:57.990Z,2.13
2022-11-29T20:26:26.162Z,2.12
2022-11-29T20:28:53.093Z,2.13
2022-11-29T20:31:22.358Z,2.13
2022-11-29T20:33:51.493Z,2.13
2022-11-29T20:36:38.291Z,2.13
2022-11-29T20:39:21.670Z,2.14
2022-11-29T20:42:01.954Z,2.13
2022-11-29T20:44:44.158Z,2.12
2022-11-29T20:47:16.817Z,2.11
2022-11-29T20:49:44.315Z,2.12
2022-11-29T20:52:19.092Z,2.14
2022-11-29T20:54:45.969Z,2.14
2022-11-29T20:57:12.736Z,2.14
2022-11-29T20:59:39.527Z,2.12
2022-11-29T21:02:06.284Z,2.12
2022-11-29T21:04:33.037Z,2.11
2022-11-29T21:06:59.803Z,2.10
2022-11-29T21:09:28.577Z,2.10
2022-11-29T21:11:55.946Z,2.10
2022-11-29T21:14:23.017Z,2.10
2022-11-29T21:16:49.979Z,2.09
2022-11-29T21:19:25.105Z,2.08
2022-11-29T21:22:17.392Z,2.05
2022-11-29T21:24:55.053Z,2.04
2022-11-29T21:27:28.325Z,2.01
2022-11-29T21:29:55.770Z,1.99
2022-11-29T21:32:24.964Z,1.97
2022-11-29T21:34:52.111Z,1.96
2022-11-29T21:37:22.113Z,1.93
2022-11-29T21:39:51.027Z,1.91
2022-11-29T21:42:18.491Z,1.89
2022-11-29T21:44:45.962Z,1.88
2022-11-29T21:47:13.203Z,1.85
2022-11-29T21:49:40.118Z,1.86
2022-11-29T21:52:06.966Z,1.86
2022-11-29T21:54:33.739Z,1.83
2022-11-29T21:57:01.155Z,1.82
2022-11-29T21:59:28.110Z,1.83
2022-11-29T22:01:55.002Z,1.82
2022-11-29T22:04:21.964Z,1.82
2022-11-29T22:06:48.765Z,1.82
2022-11-29T22:09:15.699Z,1.82
2022-11-29T22:11:42.525Z,1.81
2022-11-29T22:14:14.751Z,1.82
2022-11-29T22:16:56.537Z,1.83
2022-11-29T22:19:34.618Z,1.83
2022-11-29T22:22:05.031Z,1.82
2022-11-29T22:24:34.555Z,1.82
2022-11-29T22:27:01.842Z,1.82
2022-11-29T22:29:28.755Z,1.83
2022-11-29T22:31:58.679Z,1.83
2022-11-29T22:34:26.624Z,1.83
2022-11-29T22:36:53.753Z,1.85
2022-11-29T22:39:20.576Z,1.86
2022-11-29T22:41:53.645Z,1.86
2022-11-29T22:44:21.095Z,1.85
2022-11-29T22:46:47.948Z,1.81
2022-11-29T22:49:15.343Z,1.81
2022-11-29T22:51:43.105Z,1.80
2022-11-29T22:54:17.541Z,1.79
2022-11-29T22:56:45.311Z,1.78
2022-11-29T22:59:13.008Z,1.76
2022-11-29T23:01:41.400Z,1.76
2022-11-29T23:04:10.197Z,1.76
2022-11-29T23:06:42.720Z,1.74
2022-11-29T23:09:20.705Z,1.74
2022-11-29T23:11:55.582Z,1.73
2022-11-29T23:14:23.727Z,1.72
2022-11-29T23:16:50.928Z,1.70
2022-11-29T23:19:18.159Z,1.69
2022-11-29T23:21:46.008Z,1.67
2022-11-29T23:24:16.035Z,1.67
2022-11-29T23:26:45.491Z,1.67
2022-11-29T23:29:17.547Z,1.66
2022-11-29T23:31:45.988Z,1.65
2022-11-29T23:34:13.342Z,1.64
2022-11-29T23:36:40.177Z,1.58
2022-11-29T23:39:06.975Z,1.60
2022-11-29T23:41:35.727Z,1.60
2022-11-29T23:44:04.475Z,1.60
2022-11-29T23:46:31.346Z,1.57
2022-11-29T23:48:58.120Z,1.57
2022-11-29T23:51:24.906Z,1.55
2022-11-29T23:53:53.465Z,1.54
2022-11-29T23:56:21.320Z,1.53
2022-11-29T23:58:48.403Z,1.53
